sensor_id;sensor_type;location;lat;lon;timestamp;temperature;humidity
68378;DHT22;55322;48.146;11.516;2022-09-01T00:00:36;14.76;95.11
68378;DHT22;55322;48.146;11.516;2022-09-01T00:03:02;14.74;94.02
68378;DHT22;55322;48.146;11.516;2022-09-01T00:05:28;14.79;92.93
68378;DHT22;55322;48.146;11.516;2022-09-01T00:07:56;14.77;93.35
68378;DHT22;55322;48.146;11.516;2022-09-01T00:10:22;14.70;94.03
68378;DHT22;55322;48.146;11.516;2022-09-01T00:12:47;14.74;94.95
68378;DHT22;55322;48.146;11.516;2022-09-01T00:15:12;14.76;93.95
68378;DHT22;55322;48.146;11.516;2022-09-01T00:17:38;14.70;94.21
68378;DHT22;55322;48.146;11.516;2022-09-01T00:20:04;14.73;94.76
68378;DHT22;55322;48.146;11.516;2022-09-01T00:22:30;14.70;95.40
68378;DHT22;55322;48.146;11.516;2022-09-01T00:24:57;14.71;95.61
68378;DHT22;55322;48.146;11.516;2022-09-01T00:27:23;14.66;95.66
68378;DHT22;55322;48.146;11.516;2022-09-01T00:29:48;14.71;95.43
68378;DHT22;55322;48.146;11.516;2022-09-01T00:32:13;14.69;95.24
68378;DHT22;55322;48.146;11.516;2022-09-01T00:34:39;14.64;96.01
68378;DHT22;55322;48.146;11.516;2022-09-01T00:37:04;14.61;95.74
68378;DHT22;55322;48.146;11.516;2022-09-01T00:39:30;14.61;96.00
68378;DHT22;55322;48.146;11.516;2022-09-01T00:41:55;14.53;95.55
68378;DHT22;55322;48.146;11.516;2022-09-01T00:44:22;14.59;95.52
68378;DHT22;55322;48.146;11.516;2022-09-01T00:46:49;14.59;95.38
68378;DHT22;55322;48.146;11.516;2022-09-01T00:49:28;14.55;95.56
68378;DHT22;55322;48.146;11.516;2022-09-01T00:51:59;14.50;95.88
68378;DHT22;55322;48.146;11.516;2022-09-01T00:54:30;14.47;96.06
68378;DHT22;55322;48.146;11.516;2022-09-01T00:56:57;14.50;95.24
68378;DHT22;55322;48.146;11.516;2022-09-01T00:59:23;14.50;94.72
68378;DHT22;55322;48.146;11.516;2022-09-01T01:01:49;14.52;94.39
68378;DHT22;55322;48.146;11.516;2022-09-01T01:04:15;14.53;95.06
68378;DHT22;55322;48.146;11.516;2022-09-01T01:06:47;14.49;94.43
68378;DHT22;55322;48.146;11.516;2022-09-01T01:09:19;14.43;95.85
68378;DHT22;55322;48.146;11.516;2022-09-01T01:11:46;14.50;94.62
68378;DHT22;55322;48.146;11.516;2022-09-01T01:14:14;14.55;93.37
68378;DHT22;55322;48.146;11.516;2022-09-01T01:16:44;14.44;95.51
68378;DHT22;55322;48.146;11.516;2022-09-01T01:25:12;14.40;96.47
68378;DHT22;55322;48.146;11.516;2022-09-01T01:27:38;14.36;96.35
68378;DHT22;55322;48.146;11.516;2022-09-01T01:30:07;14.34;96.15
68378;DHT22;55322;48.146;11.516;2022-09-01T01:32:36;14.36;96.35
68378;DHT22;55322;48.146;11.516;2022-09-01T01:35:02;14.40;96.41
68378;DHT22;55322;48.146;11.516;2022-09-01T01:37:33;14.42;96.06
68378;DHT22;55322;48.146;11.516;2022-09-01T01:39:59;14.42;95.87
68378;DHT22;55322;48.146;11.516;2022-09-01T01:42:24;14.50;95.72
68378;DHT22;55322;48.146;11.516;2022-09-01T01:44:51;14.52;95.96
68378;DHT22;55322;48.146;11.516;2022-09-01T01:47:16;14.49;94.87
68378;DHT22;55322;48.146;11.516;2022-09-01T01:49:41;14.46;95.40
68378;DHT22;55322;48.146;11.516;2022-09-01T01:52:09;14.46;95.86
68378;DHT22;55322;48.146;11.516;2022-09-01T01:54:35;14.47;95.21
68378;DHT22;55322;48.146;11.516;2022-09-01T01:57:01;14.47;95.06
68378;DHT22;55322;48.146;11.516;2022-09-01T01:59:30;14.49;95.01
68378;DHT22;55322;48.146;11.516;2022-09-01T02:01:57;14.49;94.67
68378;DHT22;55322;48.146;11.516;2022-09-01T02:04:22;14.55;95.51
68378;DHT22;55322;48.146;11.516;2022-09-01T02:06:48;14.44;95.12
68378;DHT22;55322;48.146;11.516;2022-09-01T02:09:17;14.50;95.49
68378;DHT22;55322;48.146;11.516;2022-09-01T02:11:43;14.50;95.82
68378;DHT22;55322;48.146;11.516;2022-09-01T02:14:10;14.47;95.63
68378;DHT22;55322;48.146;11.516;2022-09-01T02:16:37;14.47;95.68
68378;DHT22;55322;48.146;11.516;2022-09-01T02:19:03;14.43;95.03
68378;DHT22;55322;48.146;11.516;2022-09-01T02:21:31;14.37;95.20
68378;DHT22;55322;48.146;11.516;2022-09-01T02:24:02;14.37;95.57
68378;DHT22;55322;48.146;11.516;2022-09-01T02:26:31;14.36;94.96
68378;DHT22;55322;48.146;11.516;2022-09-01T02:28:59;14.37;95.37
68378;DHT22;55322;48.146;11.516;2022-09-01T02:31:32;14.36;95.66
68378;DHT22;55322;48.146;11.516;2022-09-01T02:34:00;14.32;95.03
68378;DHT22;55322;48.146;11.516;2022-09-01T02:36:25;14.28;93.48
68378;DHT22;55322;48.146;11.516;2022-09-01T02:38:51;14.29;92.91
68378;DHT22;55322;48.146;11.516;2022-09-01T02:41:18;14.28;92.80
68378;DHT22;55322;48.146;11.516;2022-09-01T02:43:44;14.23;94.33
68378;DHT22;55322;48.146;11.516;2022-09-01T02:46:10;14.23;94.84
68378;DHT22;55322;48.146;11.516;2022-09-01T02:48:38;14.16;95.41
68378;DHT22;55322;48.146;11.516;2022-09-01T02:51:14;14.12;95.59
68378;DHT22;55322;48.146;11.516;2022-09-01T02:53:41;14.08;95.66
68378;DHT22;55322;48.146;11.516;2022-09-01T02:56:09;13.99;95.46
68378;DHT22;55322;48.146;11.516;2022-09-01T02:58:40;14.06;95.29
68378;DHT22;55322;48.146;11.516;2022-09-01T03:01:12;13.95;95.62
68378;DHT22;55322;48.146;11.516;2022-09-01T03:03:38;13.94;94.41
68378;DHT22;55322;48.146;11.516;2022-09-01T03:06:04;13.81;95.23
68378;DHT22;55322;48.146;11.516;2022-09-01T03:08:33;13.85;94.95
68378;DHT22;55322;48.146;11.516;2022-09-01T03:11:00;13.74;95.74
68378;DHT22;55322;48.146;11.516;2022-09-01T03:13:27;13.75;95.59
68378;DHT22;55322;48.146;11.516;2022-09-01T03:15:53;13.69;96.06
68378;DHT22;55322;48.146;11.516;2022-09-01T03:18:19;13.61;96.52
68378;DHT22;55322;48.146;11.516;2022-09-01T03:20:45;13.65;95.30
68378;DHT22;55322;48.146;11.516;2022-09-01T03:23:14;13.68;94.39
68378;DHT22;55322;48.146;11.516;2022-09-01T03:25:41;13.75;93.94
68378;DHT22;55322;48.146;11.516;2022-09-01T03:28:07;13.75;94.55
68378;DHT22;55322;48.146;11.516;2022-09-01T03:30:36;13.77;93.89
68378;DHT22;55322;48.146;11.516;2022-09-01T03:33:05;13.72;94.64
68378;DHT22;55322;48.146;11.516;2022-09-01T03:35:31;13.77;93.81
68378;DHT22;55322;48.146;11.516;2022-09-01T03:37:59;13.72;95.25
68378;DHT22;55322;48.146;11.516;2022-09-01T03:40:27;13.78;95.46
68378;DHT22;55322;48.146;11.516;2022-09-01T03:42:54;13.78;94.21
68378;DHT22;55322;48.146;11.516;2022-09-01T03:45:19;13.77;93.54
68378;DHT22;55322;48.146;11.516;2022-09-01T03:47:45;13.83;93.84
68378;DHT22;55322;48.146;11.516;2022-09-01T03:50:14;13.85;94.02
68378;DHT22;55322;48.146;11.516;2022-09-01T03:52:49;13.85;94.15
68378;DHT22;55322;48.146;11.516;2022-09-01T03:55:19;13.79;94.14
68378;DHT22;55322;48.146;11.516;2022-09-01T03:57:55;13.79;94.96
68378;DHT22;55322;48.146;11.516;2022-09-01T04:00:23;13.79;94.99
68378;DHT22;55322;48.146;11.516;2022-09-01T04:02:51;13.77;95.38
68378;DHT22;55322;48.146;11.516;2022-09-01T04:05:18;13.77;95.26
68378;DHT22;55322;48.146;11.516;2022-09-01T04:07:47;13.72;95.49
68378;DHT22;55322;48.146;11.516;2022-09-01T04:10:16;13.68;95.82
68378;DHT22;55322;48.146;11.516;2022-09-01T04:12:42;13.74;95.99
68378;DHT22;55322;48.146;11.516;2022-09-01T04:15:08;13.81;93.85
68378;DHT22;55322;48.146;11.516;2022-09-01T04:17:34;13.77;95.48
68378;DHT22;55322;48.146;11.516;2022-09-01T04:20:18;13.74;95.91
68378;DHT22;55322;48.146;11.516;2022-09-01T04:22:49;13.74;95.43
68378;DHT22;55322;48.146;11.516;2022-09-01T04:25:16;13.68;96.22
68378;DHT22;55322;48.146;11.516;2022-09-01T04:27:41;13.65;95.90
68378;DHT22;55322;48.146;11.516;2022-09-01T04:30:10;13.65;96.05
68378;DHT22;55322;48.146;11.516;2022-09-01T04:32:36;13.58;96.39
68378;DHT22;55322;48.146;11.516;2022-09-01T04:35:03;13.62;95.68
68378;DHT22;55322;48.146;11.516;2022-09-01T04:37:29;13.65;96.15
68378;DHT22;55322;48.146;11.516;2022-09-01T04:39:55;13.62;96.08
68378;DHT22;55322;48.146;11.516;2022-09-01T04:42:23;13.62;95.85
68378;DHT22;55322;48.146;11.516;2022-09-01T04:44:52;13.64;96.10
68378;DHT22;55322;48.146;11.516;2022-09-01T04:47:21;13.54;96.51
68378;DHT22;55322;48.146;11.516;2022-09-01T04:49:57;13.51;96.47
68378;DHT22;55322;48.146;11.516;2022-09-01T04:52:25;13.55;96.62
68378;DHT22;55322;48.146;11.516;2022-09-01T04:54:51;13.50;96.65
68378;DHT22;55322;48.146;11.516;2022-09-01T04:57:16;13.50;96.53
68378;DHT22;55322;48.146;11.516;2022-09-01T04:59:42;13.48;96.24
68378;DHT22;55322;48.146;11.516;2022-09-01T05:02:08;13.51;96.06
68378;DHT22;55322;48.146;11.516;2022-09-01T05:04:35;13.54;96.14
68378;DHT22;55322;48.146;11.516;2022-09-01T05:07:02;13.50;96.62
68378;DHT22;55322;48.146;11.516;2022-09-01T05:09:30;13.50;96.56
68378;DHT22;55322;48.146;11.516;2022-09-01T05:11:57;13.53;96.26
68378;DHT22;55322;48.146;11.516;2022-09-01T05:14:36;13.62;96.09
68378;DHT22;55322;48.146;11.516;2022-09-01T05:17:02;13.71;95.36
68378;DHT22;55322;48.146;11.516;2022-09-01T05:19:28;13.71;95.65
68378;DHT22;55322;48.146;11.516;2022-09-01T05:21:54;13.81;95.94
68378;DHT22;55322;48.146;11.516;2022-09-01T05:24:22;13.88;95.08
68378;DHT22;55322;48.146;11.516;2022-09-01T05:26:54;13.92;94.76
68378;DHT22;55322;48.146;11.516;2022-09-01T05:29:20;13.98;95.12
68378;DHT22;55322;48.146;11.516;2022-09-01T05:31:47;14.05;94.70
68378;DHT22;55322;48.146;11.516;2022-09-01T05:34:13;14.05;94.98
68378;DHT22;55322;48.146;11.516;2022-09-01T05:36:44;14.02;93.20
68378;DHT22;55322;48.146;11.516;2022-09-01T05:39:10;14.05;92.86
68378;DHT22;55322;48.146;11.516;2022-09-01T05:41:37;14.10;93.37
68378;DHT22;55322;48.146;11.516;2022-09-01T05:44:04;14.20;91.99
68378;DHT22;55322;48.146;11.516;2022-09-01T05:46:31;14.25;90.92
68378;DHT22;55322;48.146;11.516;2022-09-01T05:48:58;14.33;90.29
68378;DHT22;55322;48.146;11.516;2022-09-01T05:51:25;14.26;90.30
68378;DHT22;55322;48.146;11.516;2022-09-01T05:53:53;14.43;89.27
68378;DHT22;55322;48.146;11.516;2022-09-01T05:56:24;14.52;89.16
68378;DHT22;55322;48.146;11.516;2022-09-01T05:58:50;14.60;89.38
68378;DHT22;55322;48.146;11.516;2022-09-01T06:01:18;14.53;90.36
68378;DHT22;55322;48.146;11.516;2022-09-01T06:03:47;14.49;88.68
68378;DHT22;55322;48.146;11.516;2022-09-01T06:06:14;14.40;89.57
68378;DHT22;55322;48.146;11.516;2022-09-01T06:08:39;14.55;89.27
68378;DHT22;55322;48.146;11.516;2022-09-01T06:11:07;14.59;87.66
68378;DHT22;55322;48.146;11.516;2022-09-01T06:13:37;14.84;88.81
68378;DHT22;55322;48.146;11.516;2022-09-01T06:16:04;15.05;86.52
68378;DHT22;55322;48.146;11.516;2022-09-01T06:18:30;15.23;85.50
68378;DHT22;55322;48.146;11.516;2022-09-01T06:20:58;15.41;85.38
68378;DHT22;55322;48.146;11.516;2022-09-01T06:23:24;15.32;83.66
68378;DHT22;55322;48.146;11.516;2022-09-01T06:25:49;15.31;85.48
68378;DHT22;55322;48.146;11.516;2022-09-01T06:28:17;15.20;84.81
68378;DHT22;55322;48.146;11.516;2022-09-01T06:30:46;15.18;85.47
68378;DHT22;55322;48.146;11.516;2022-09-01T06:33:12;14.97;84.84
68378;DHT22;55322;48.146;11.516;2022-09-01T06:35:40;14.81;84.90
68378;DHT22;55322;48.146;11.516;2022-09-01T06:38:07;14.83;85.29
68378;DHT22;55322;48.146;11.516;2022-09-01T06:40:33;14.90;85.82
68378;DHT22;55322;48.146;11.516;2022-09-01T06:43:00;14.95;86.61
68378;DHT22;55322;48.146;11.516;2022-09-01T06:45:33;14.95;84.97
68378;DHT22;55322;48.146;11.516;2022-09-01T06:47:59;15.07;85.56
68378;DHT22;55322;48.146;11.516;2022-09-01T06:50:25;15.00;84.68
68378;DHT22;55322;48.146;11.516;2022-09-01T06:52:52;15.15;84.91
68378;DHT22;55322;48.146;11.516;2022-09-01T06:55:35;15.05;84.69
68378;DHT22;55322;48.146;11.516;2022-09-01T06:58:02;14.93;84.81
68378;DHT22;55322;48.146;11.516;2022-09-01T07:00:29;15.05;85.11
68378;DHT22;55322;48.146;11.516;2022-09-01T07:02:56;15.14;84.02
68378;DHT22;55322;48.146;11.516;2022-09-01T07:05:23;15.04;83.97
68378;DHT22;55322;48.146;11.516;2022-09-01T07:07:50;15.27;84.16
68378;DHT22;55322;48.146;11.516;2022-09-01T07:10:17;15.31;84.02
68378;DHT22;55322;48.146;11.516;2022-09-01T07:12:49;15.04;84.52
68378;DHT22;55322;48.146;11.516;2022-09-01T07:15:15;15.03;84.79
68378;DHT22;55322;48.146;11.516;2022-09-01T07:17:53;15.07;84.99
68378;DHT22;55322;48.146;11.516;2022-09-01T07:20:22;14.95;84.65
68378;DHT22;55322;48.146;11.516;2022-09-01T07:22:48;14.90;84.42
68378;DHT22;55322;48.146;11.516;2022-09-01T07:25:14;14.81;84.68
68378;DHT22;55322;48.146;11.516;2022-09-01T07:27:42;14.81;85.41
68378;DHT22;55322;48.146;11.516;2022-09-01T07:30:14;14.88;85.11
68378;DHT22;55322;48.146;11.516;2022-09-01T07:32:40;14.95;85.40
68378;DHT22;55322;48.146;11.516;2022-09-01T07:35:11;15.04;84.55
68378;DHT22;55322;48.146;11.516;2022-09-01T07:37:36;15.18;84.87
68378;DHT22;55322;48.146;11.516;2022-09-01T07:40:05;15.34;83.42
68378;DHT22;55322;48.146;11.516;2022-09-01T07:42:31;15.56;82.43
68378;DHT22;55322;48.146;11.516;2022-09-01T07:44:56;15.86;80.48
68378;DHT22;55322;48.146;11.516;2022-09-01T07:47:22;16.77;77.05
68378;DHT22;55322;48.146;11.516;2022-09-01T07:49:48;16.70;77.24
68378;DHT22;55322;48.146;11.516;2022-09-01T07:52:13;17.40;76.26
68378;DHT22;55322;48.146;11.516;2022-09-01T07:54:38;17.12;73.71
68378;DHT22;55322;48.146;11.516;2022-09-01T07:57:04;16.33;76.54
68378;DHT22;55322;48.146;11.516;2022-09-01T07:59:30;16.54;76.96
68378;DHT22;55322;48.146;11.516;2022-09-01T08:01:57;16.70;76.62
68378;DHT22;55322;48.146;11.516;2022-09-01T08:04:23;16.47;76.22
68378;DHT22;55322;48.146;11.516;2022-09-01T08:06:50;16.53;76.51
68378;DHT22;55322;48.146;11.516;2022-09-01T08:09:15;16.16;77.63
68378;DHT22;55322;48.146;11.516;2022-09-01T08:11:41;16.21;78.44
68378;DHT22;55322;48.146;11.516;2022-09-01T08:14:07;15.98;78.68
68378;DHT22;55322;48.146;11.516;2022-09-01T08:16:38;16.30;79.85
68378;DHT22;55322;48.146;11.516;2022-09-01T08:19:03;16.34;78.02
68378;DHT22;55322;48.146;11.516;2022-09-01T08:21:29;16.44;77.98
68378;DHT22;55322;48.146;11.516;2022-09-01T08:23:55;16.47;77.51
68378;DHT22;55322;48.146;11.516;2022-09-01T08:26:24;16.54;78.23
68378;DHT22;55322;48.146;11.516;2022-09-01T08:28:50;16.54;77.59
68378;DHT22;55322;48.146;11.516;2022-09-01T08:31:17;16.73;77.02
68378;DHT22;55322;48.146;11.516;2022-09-01T08:33:45;16.64;76.48
68378;DHT22;55322;48.146;11.516;2022-09-01T08:36:13;16.63;79.21
68378;DHT22;55322;48.146;11.516;2022-09-01T08:38:39;16.67;79.75
68378;DHT22;55322;48.146;11.516;2022-09-01T08:41:13;16.78;80.75
68378;DHT22;55322;48.146;11.516;2022-09-01T08:46:34;16.85;79.84
68378;DHT22;55322;48.146;11.516;2022-09-01T08:49:22;16.81;76.61
68378;DHT22;55322;48.146;11.516;2022-09-01T08:51:52;16.83;77.96
68378;DHT22;55322;48.146;11.516;2022-09-01T08:57:23;16.94;76.42
68378;DHT22;55322;48.146;11.516;2022-09-01T08:59:51;17.03;78.68
68378;DHT22;55322;48.146;11.516;2022-09-01T09:13:10;17.34;78.74
68378;DHT22;55322;48.146;11.516;2022-09-01T09:16:07;17.42;73.29
68378;DHT22;55322;48.146;11.516;2022-09-01T09:18:49;17.39;74.81
68378;DHT22;55322;48.146;11.516;2022-09-01T09:21:16;17.63;72.21
68378;DHT22;55322;48.146;11.516;2022-09-01T09:23:46;17.73;74.89
68378;DHT22;55322;48.146;11.516;2022-09-01T09:26:12;17.82;74.50
68378;DHT22;55322;48.146;11.516;2022-09-01T09:28:37;18.06;70.75
68378;DHT22;55322;48.146;11.516;2022-09-01T09:33:51;18.01;69.86
68378;DHT22;55322;48.146;11.516;2022-09-01T09:36:22;17.91;70.11
68378;DHT22;55322;48.146;11.516;2022-09-01T09:41:35;18.64;66.97
68378;DHT22;55322;48.146;11.516;2022-09-01T09:44:16;19.11;69.86
68378;DHT22;55322;48.146;11.516;2022-09-01T09:46:45;19.69;64.17
68378;DHT22;55322;48.146;11.516;2022-09-01T09:51:42;21.46;61.10
68378;DHT22;55322;48.146;11.516;2022-09-01T09:54:23;21.57;57.95
68378;DHT22;55322;48.146;11.516;2022-09-01T09:57:04;21.91;60.70
68378;DHT22;55322;48.146;11.516;2022-09-01T10:02:28;22.71;58.43
68378;DHT22;55322;48.146;11.516;2022-09-01T10:04:58;21.98;54.03
68378;DHT22;55322;48.146;11.516;2022-09-01T10:07:28;22.54;54.84
68378;DHT22;55322;48.146;11.516;2022-09-01T10:09:56;22.04;55.50
68378;DHT22;55322;48.146;11.516;2022-09-01T10:12:25;22.15;56.40
68378;DHT22;55322;48.146;11.516;2022-09-01T10:14:59;22.58;55.42
68378;DHT22;55322;48.146;11.516;2022-09-01T10:17:31;21.39;62.04
68378;DHT22;55322;48.146;11.516;2022-09-01T10:20:12;21.57;62.57
68378;DHT22;55322;48.146;11.516;2022-09-01T10:22:39;20.59;60.40
68378;DHT22;55322;48.146;11.516;2022-09-01T10:25:06;20.99;63.51
68378;DHT22;55322;48.146;11.516;2022-09-01T10:27:35;21.23;58.37
68378;DHT22;55322;48.146;11.516;2022-09-01T10:30:13;20.92;59.88
68378;DHT22;55322;48.146;11.516;2022-09-01T10:32:45;21.05;60.22
68378;DHT22;55322;48.146;11.516;2022-09-01T10:35:24;21.71;58.39
68378;DHT22;55322;48.146;11.516;2022-09-01T10:37:52;22.30;55.31
68378;DHT22;55322;48.146;11.516;2022-09-01T10:42:58;22.85;51.75
68378;DHT22;55322;48.146;11.516;2022-09-01T10:45:36;23.10;51.91
68378;DHT22;55322;48.146;11.516;2022-09-01T10:50:44;21.28;57.92
68378;DHT22;55322;48.146;11.516;2022-09-01T10:56:06;21.05;55.84
68378;DHT22;55322;48.146;11.516;2022-09-01T10:58:40;21.45;55.23
68378;DHT22;55322;48.146;11.516;2022-09-01T11:01:06;21.61;58.25
68378;DHT22;55322;48.146;11.516;2022-09-01T11:03:36;21.87;56.29
68378;DHT22;55322;48.146;11.516;2022-09-01T11:06:08;21.76;58.86
68378;DHT22;55322;48.146;11.516;2022-09-01T11:13:55;20.99;54.71
68378;DHT22;55322;48.146;11.516;2022-09-01T11:19:26;21.45;53.98
68378;DHT22;55322;48.146;11.516;2022-09-01T11:25:08;21.51;57.91
68378;DHT22;55322;48.146;11.516;2022-09-01T11:30:20;21.80;53.41
68378;DHT22;55322;48.146;11.516;2022-09-01T11:32:50;21.67;52.10
68378;DHT22;55322;48.146;11.516;2022-09-01T11:35:19;22.11;53.08
68378;DHT22;55322;48.146;11.516;2022-09-01T11:37:51;22.30;56.60
68378;DHT22;55322;48.146;11.516;2022-09-01T11:40:26;21.70;56.45
68378;DHT22;55322;48.146;11.516;2022-09-01T11:42:52;21.61;54.06
68378;DHT22;55322;48.146;11.516;2022-09-01T11:45:30;21.77;55.82
68378;DHT22;55322;48.146;11.516;2022-09-01T11:48:06;21.69;53.25
68378;DHT22;55322;48.146;11.516;2022-09-01T11:50:36;21.91;51.99
68378;DHT22;55322;48.146;11.516;2022-09-01T11:53:19;21.43;55.08
68378;DHT22;55322;48.146;11.516;2022-09-01T11:55:48;21.39;50.37
68378;DHT22;55322;48.146;11.516;2022-09-01T12:00:52;22.07;49.44
68378;DHT22;55322;48.146;11.516;2022-09-01T12:03:29;22.21;52.28
68378;DHT22;55322;48.146;11.516;2022-09-01T12:05:57;22.14;49.03
68378;DHT22;55322;48.146;11.516;2022-09-01T12:08:30;22.78;52.71
68378;DHT22;55322;48.146;11.516;2022-09-01T12:11:05;22.91;48.71
68378;DHT22;55322;48.146;11.516;2022-09-01T12:13:32;22.14;48.68
68378;DHT22;55322;48.146;11.516;2022-09-01T12:16:03;22.34;51.17
68378;DHT22;55322;48.146;11.516;2022-09-01T12:18:32;22.04;51.96
68378;DHT22;55322;48.146;11.516;2022-09-01T12:21:00;21.96;51.93
68378;DHT22;55322;48.146;11.516;2022-09-01T12:23:37;21.57;55.18
68378;DHT22;55322;48.146;11.516;2022-09-01T12:28:56;20.91;51.53
68378;DHT22;55322;48.146;11.516;2022-09-01T12:31:23;21.38;51.96
68378;DHT22;55322;48.146;11.516;2022-09-01T12:33:51;21.42;54.37
68378;DHT22;55322;48.146;11.516;2022-09-01T12:36:33;21.05;58.96
68378;DHT22;55322;48.146;11.516;2022-09-01T12:39:23;20.21;60.88
68378;DHT22;55322;48.146;11.516;2022-09-01T12:47:06;19.49;63.28
68378;DHT22;55322;48.146;11.516;2022-09-01T12:49:44;19.45;62.39
68378;DHT22;55322;48.146;11.516;2022-09-01T12:52:23;19.53;63.10
68378;DHT22;55322;48.146;11.516;2022-09-01T12:54:54;19.63;62.46
68378;DHT22;55322;48.146;11.516;2022-09-01T12:57:34;19.59;61.80
68378;DHT22;55322;48.146;11.516;2022-09-01T13:00:34;19.70;59.00
68378;DHT22;55322;48.146;11.516;2022-09-01T13:03:07;19.77;60.75
68378;DHT22;55322;48.146;11.516;2022-09-01T13:05:43;20.07;56.28
68378;DHT22;55322;48.146;11.516;2022-09-01T13:08:16;20.55;57.95
68378;DHT22;55322;48.146;11.516;2022-09-01T13:10:47;20.78;57.51
68378;DHT22;55322;48.146;11.516;2022-09-01T13:13:14;20.59;58.32
68378;DHT22;55322;48.146;11.516;2022-09-01T13:15:47;20.88;58.39
68378;DHT22;55322;48.146;11.516;2022-09-01T13:18:15;20.95;55.14
68378;DHT22;55322;48.146;11.516;2022-09-01T13:20:40;21.39;56.55
68378;DHT22;55322;48.146;11.516;2022-09-01T13:23:07;21.32;53.52
68378;DHT22;55322;48.146;11.516;2022-09-01T13:25:33;21.67;55.03
68378;DHT22;55322;48.146;11.516;2022-09-01T13:28:00;21.57;54.74
68378;DHT22;55322;48.146;11.516;2022-09-01T13:30:27;21.86;53.71
68378;DHT22;55322;48.146;11.516;2022-09-01T13:32:55;21.13;56.71
68378;DHT22;55322;48.146;11.516;2022-09-01T13:35:21;20.67;57.20
68378;DHT22;55322;48.146;11.516;2022-09-01T13:37:47;21.16;56.65
68378;DHT22;55322;48.146;11.516;2022-09-01T13:40:14;21.35;56.00
68378;DHT22;55322;48.146;11.516;2022-09-01T13:42:51;21.32;55.89
68378;DHT22;55322;48.146;11.516;2022-09-01T13:45:19;21.15;53.58
68378;DHT22;55322;48.146;11.516;2022-09-01T13:47:47;21.25;52.18
68378;DHT22;55322;48.146;11.516;2022-09-01T13:50:18;21.53;54.23
68378;DHT22;55322;48.146;11.516;2022-09-01T13:52:46;21.19;52.65
68378;DHT22;55322;48.146;11.516;2022-09-01T13:55:15;21.18;51.84
68378;DHT22;55322;48.146;11.516;2022-09-01T13:57:41;21.19;52.75
68378;DHT22;55322;48.146;11.516;2022-09-01T14:00:10;21.12;53.03
68378;DHT22;55322;48.146;11.516;2022-09-01T14:02:40;21.49;51.11
68378;DHT22;55322;48.146;11.516;2022-09-01T14:05:07;21.30;54.29
68378;DHT22;55322;48.146;11.516;2022-09-01T14:07:33;21.20;51.85
68378;DHT22;55322;48.146;11.516;2022-09-01T14:09:58;21.26;53.30
68378;DHT22;55322;48.146;11.516;2022-09-01T14:12:24;21.20;54.86
68378;DHT22;55322;48.146;11.516;2022-09-01T14:14:50;21.12;54.20
68378;DHT22;55322;48.146;11.516;2022-09-01T14:17:15;20.69;56.64
68378;DHT22;55322;48.146;11.516;2022-09-01T14:19:41;20.71;57.93
68378;DHT22;55322;48.146;11.516;2022-09-01T14:22:07;20.92;56.27
68378;DHT22;55322;48.146;11.516;2022-09-01T14:24:35;21.06;56.78
68378;DHT22;55322;48.146;11.516;2022-09-01T14:27:01;21.18;53.90
68378;DHT22;55322;48.146;11.516;2022-09-01T14:29:26;21.08;53.84
68378;DHT22;55322;48.146;11.516;2022-09-01T14:31:52;21.03;53.57
68378;DHT22;55322;48.146;11.516;2022-09-01T14:34:21;20.96;52.67
68378;DHT22;55322;48.146;11.516;2022-09-01T14:36:48;21.06;52.66
68378;DHT22;55322;48.146;11.516;2022-09-01T14:39:14;21.18;55.05
68378;DHT22;55322;48.146;11.516;2022-09-01T14:41:39;21.16;54.04
68378;DHT22;55322;48.146;11.516;2022-09-01T14:44:04;21.06;53.62
68378;DHT22;55322;48.146;11.516;2022-09-01T14:46:30;21.26;53.12
68378;DHT22;55322;48.146;11.516;2022-09-01T14:48:59;20.72;58.02
68378;DHT22;55322;48.146;11.516;2022-09-01T14:51:27;20.64;58.01
68378;DHT22;55322;48.146;11.516;2022-09-01T14:53:54;20.51;53.86
68378;DHT22;55322;48.146;11.516;2022-09-01T14:56:20;20.49;53.01
68378;DHT22;55322;48.146;11.516;2022-09-01T14:58:47;20.67;52.79
68378;DHT22;55322;48.146;11.516;2022-09-01T15:01:18;20.79;51.95
68378;DHT22;55322;48.146;11.516;2022-09-01T15:03:45;20.79;51.08
68378;DHT22;55322;48.146;11.516;2022-09-01T15:06:15;20.56;53.90
68378;DHT22;55322;48.146;11.516;2022-09-01T15:08:41;20.33;55.22
68378;DHT22;55322;48.146;11.516;2022-09-01T15:11:18;20.37;55.53
68378;DHT22;55322;48.146;11.516;2022-09-01T15:13:44;20.35;55.23
68378;DHT22;55322;48.146;11.516;2022-09-01T15:16:19;20.44;49.75
68378;DHT22;55322;48.146;11.516;2022-09-01T15:18:44;20.48;50.64
68378;DHT22;55322;48.146;11.516;2022-09-01T15:21:29;20.47;51.29
68378;DHT22;55322;48.146;11.516;2022-09-01T15:24:01;20.43;51.74
68378;DHT22;55322;48.146;11.516;2022-09-01T15:26:27;20.55;48.15
68378;DHT22;55322;48.146;11.516;2022-09-01T15:28:53;20.49;52.10
68378;DHT22;55322;48.146;11.516;2022-09-01T15:31:19;20.59;47.33
68378;DHT22;55322;48.146;11.516;2022-09-01T15:33:45;20.52;47.86
68378;DHT22;55322;48.146;11.516;2022-09-01T15:36:18;20.54;51.31
68378;DHT22;55322;48.146;11.516;2022-09-01T15:38:43;20.40;52.41
68378;DHT22;55322;48.146;11.516;2022-09-01T15:41:18;20.40;51.25
68378;DHT22;55322;48.146;11.516;2022-09-01T15:43:44;20.44;52.10
68378;DHT22;55322;48.146;11.516;2022-09-01T15:46:09;20.34;53.69
68378;DHT22;55322;48.146;11.516;2022-09-01T15:48:36;20.13;55.01
68378;DHT22;55322;48.146;11.516;2022-09-01T15:53:53;20.03;56.75
68378;DHT22;55322;48.146;11.516;2022-09-01T15:56:19;19.83;53.62
68378;DHT22;55322;48.146;11.516;2022-09-01T15:58:45;19.73;53.17
68378;DHT22;55322;48.146;11.516;2022-09-01T16:01:11;19.74;54.50
68378;DHT22;55322;48.146;11.516;2022-09-01T16:03:36;19.71;54.58
68378;DHT22;55322;48.146;11.516;2022-09-01T16:06:03;19.70;54.04
68378;DHT22;55322;48.146;11.516;2022-09-01T16:08:28;19.66;52.00
68378;DHT22;55322;48.146;11.516;2022-09-01T16:10:54;19.67;52.34
68378;DHT22;55322;48.146;11.516;2022-09-01T16:13:20;19.67;52.83
68378;DHT22;55322;48.146;11.516;2022-09-01T16:16:02;19.53;51.19
68378;DHT22;55322;48.146;11.516;2022-09-01T16:18:43;19.48;53.44
68378;DHT22;55322;48.146;11.516;2022-09-01T16:21:17;19.46;51.37
68378;DHT22;55322;48.146;11.516;2022-09-01T16:23:48;19.39;55.52
68378;DHT22;55322;48.146;11.516;2022-09-01T16:26:14;19.25;56.77
68378;DHT22;55322;48.146;11.516;2022-09-01T16:28:46;19.28;52.43
68378;DHT22;55322;48.146;11.516;2022-09-01T16:31:18;19.12;54.69
68378;DHT22;55322;48.146;11.516;2022-09-01T16:33:48;19.14;54.58